Time;durP1;ratioP1;P1;durP2;ratioP2;P2;SDS_P1;SDS_P2;PMS_P1;PMS_P2;Temp;Humidity;BMP_temperature;BMP_pressure;BME280_temperature;BME280_humidity;BME280_pressure;Samples;Min_cycle;Max_cycle;Signal;HPM_P1;HPM_P2
2021/01/23 00:02:04;;;;;;;3.83;2.67;;;15.80;60.60;;;;;;6306795;22;20286;-75
2021/01/23 00:04:29;;;;;;;2.60;1.85;;;15.80;60.60;;;;;;6306537;22;20007;-74
2021/01/23 00:06:56;;;;;;;2.20;1.60;;;15.80;60.60;;;;;;6308375;22;20000;-74
2021/01/23 00:09:21;;;;;;;1.85;1.50;;;15.80;60.60;;;;;;6281020;22;20326;-75
2021/01/23 00:11:48;;;;;;;4.30;1.70;;;15.80;60.60;;;;;;6308670;22;19995;-75
2021/01/23 00:14:16;;;;;;;3.80;1.65;;;15.90;60.60;;;;;;6281469;22;20000;-75
2021/01/23 00:16:43;;;;;;;4.80;2.17;;;15.80;60.60;;;;;;6308362;22;19991;-75
2021/01/23 00:19:09;;;;;;;2.08;1.60;;;15.80;60.60;;;;;;6308157;22;20048;-75
2021/01/23 00:21:35;;;;;;;2.97;1.80;;;15.80;60.60;;;;;;6281123;22;20037;-75
2021/01/23 00:24:01;;;;;;;3.47;1.55;;;15.80;60.70;;;;;;6306760;22;20509;-75
2021/01/23 00:26:26;;;;;;;2.53;1.60;;;15.80;60.70;;;;;;6308570;22;20023;-75
2021/01/23 00:28:52;;;;;;;4.18;1.60;;;15.80;60.70;;;;;;6307026;22;20030;-75
2021/01/23 00:31:18;;;;;;;3.60;1.80;;;15.80;60.70;;;;;;6281030;22;19999;-75
2021/01/23 00:33:43;;;;;;;1.70;1.60;;;15.80;60.70;;;;;;6306542;22;20440;-75
2021/01/23 00:36:09;;;;;;;2.95;1.20;;;15.80;60.70;;;;;;6280731;22;20007;-75
2021/01/23 00:38:35;;;;;;;2.28;1.70;;;15.80;60.70;;;;;;6308638;22;20018;-75
2021/01/23 00:41:00;;;;;;;2.28;1.63;;;15.80;60.70;;;;;;6306227;22;20006;-75
2021/01/23 00:43:26;;;;;;;2.42;1.50;;;15.80;60.70;;;;;;6306329;22;20003;-75
2021/01/23 00:45:52;;;;;;;2.60;1.80;;;15.80;60.70;;;;;;6280445;22;20019;-75
2021/01/23 00:48:17;;;;;;;2.60;1.55;;;15.80;60.70;;;;;;6308190;22;20004;-75
2021/01/23 00:50:43;;;;;;;2.25;1.50;;;15.80;60.70;;;;;;6306509;22;20361;-75
2021/01/23 00:53:37;;;;;;;2.10;1.58;;;15.80;60.70;;;;;;6308342;22;20000;-75
2021/01/23 00:56:24;;;;;;;1.92;1.40;;;15.80;60.70;;;;;;6274045;22;20008;-75
2021/01/23 00:58:51;;;;;;;2.20;1.70;;;15.80;60.80;;;;;;6301564;22;20007;-74
2021/01/23 01:01:17;;;;;;;1.95;1.60;;;15.80;60.80;;;;;;6307250;22;20007;-75
2021/01/23 01:03:42;;;;;;;2.60;1.58;;;15.80;60.80;;;;;;6280708;22;20003;-75
2021/01/23 01:06:08;;;;;;;1.98;1.40;;;15.80;60.80;;;;;;6308153;22;19999;-75
2021/01/23 01:08:34;;;;;;;2.35;1.60;;;15.80;60.80;;;;;;6308226;22;20316;-75
2021/01/23 01:10:59;;;;;;;2.22;1.50;;;15.80;60.80;;;;;;6308008;22;20006;-75
2021/01/23 01:13:25;;;;;;;4.25;1.70;;;15.80;60.80;;;;;;6308938;22;19999;-75
2021/01/23 01:15:51;;;;;;;2.67;1.65;;;15.80;60.80;;;;;;6307922;22;20022;-75
2021/01/23 01:18:16;;;;;;;2.10;1.38;;;15.80;60.80;;;;;;6307756;22;20003;-75
2021/01/23 01:20:42;;;;;;;3.75;1.67;;;15.80;60.80;;;;;;6305436;22;20368;-75
2021/01/23 01:23:08;;;;;;;1.50;1.27;;;15.80;60.90;;;;;;6307750;22;20006;-75
2021/01/23 01:25:34;;;;;;;1.70;1.42;;;15.80;60.80;;;;;;6307771;22;20053;-75
2021/01/23 01:28:02;;;;;;;2.60;1.50;;;15.80;60.80;;;;;;6307759;22;20007;-75
2021/01/23 01:30:28;;;;;;;;;;;15.80;60.90;;;;;;6306732;22;20006;-75
2021/01/23 01:32:53;;;;;;;1.85;1.20;;;15.80;60.90;;;;;;6306426;22;19899;-75
2021/01/23 01:35:19;;;;;;;1.30;1.20;;;15.80;60.90;;;;;;6306928;22;20023;-75
2021/01/23 01:37:45;;;;;;;2.13;1.38;;;15.80;60.90;;;;;;6307913;22;20026;-75
2021/01/23 01:40:11;;;;;;;1.90;1.38;;;15.80;60.90;;;;;;6305562;22;20011;-75
2021/01/23 01:42:37;;;;;;;2.85;1.38;;;15.80;60.90;;;;;;6307331;22;19996;-75
2021/01/23 01:45:04;;;;;;;1.48;1.27;;;15.80;60.90;;;;;;6307705;22;20003;-75
2021/01/23 01:47:29;;;;;;;2.25;1.30;;;15.80;60.90;;;;;;6307879;22;20015;-75
2021/01/23 01:49:57;;;;;;;2.65;1.40;;;15.80;60.90;;;;;;6307485;22;20310;-75
2021/01/23 01:52:24;;;;;;;1.77;1.30;;;15.80;60.90;;;;;;6307495;22;20031;-75
2021/01/23 01:54:52;;;;;;;2.50;1.30;;;15.80;60.90;;;;;;6307936;22;20004;-75
2021/01/23 01:57:24;;;;;;;1.83;1.40;;;15.70;60.90;;;;;;6307984;22;20002;-75
2021/01/23 01:59:50;;;;;;;2.80;1.58;;;15.80;61.00;;;;;;6280406;22;20401;-75
2021/01/23 02:02:15;;;;;;;1.98;1.30;;;15.80;61.00;;;;;;6307429;22;20000;-75
2021/01/23 02:05:03;;;;;;;1.83;1.30;;;15.80;61.00;;;;;;6279496;22;20011;-75
2021/01/23 02:07:58;;;;;;;1.83;1.30;;;15.80;61.00;;;;;;6306238;22;19999;-75
2021/01/23 02:10:42;;;;;;;2.22;1.30;;;15.80;61.00;;;;;;6307766;22;19999;-75
2021/01/23 02:13:29;;;;;;;1.95;1.45;;;15.70;61.00;;;;;;6280680;22;20352;-75
2021/01/23 02:16:25;;;;;;;1.65;1.52;;;15.80;61.00;;;;;;6307672;22;20045;-75
2021/01/23 02:19:29;;;;;;;1.70;1.50;;;15.80;61.00;;;;;;6307788;22;20010;-75
2021/01/23 02:22:21;;;;;;;1.48;1.02;;;15.80;61.00;;;;;;6273809;22;20003;-75
2021/01/23 02:24:51;;;;;;;1.80;1.30;;;15.80;61.00;;;;;;6306537;22;19996;-75
2021/01/23 02:27:39;;;;;;;2.17;1.55;;;15.70;61.00;;;;;;6307317;22;20021;-75
2021/01/23 02:30:07;;;;;;;;;;;15.70;61.00;;;;;;6307800;22;20007;-75
2021/01/23 02:32:37;;;;;;;1.90;1.42;;;15.70;61.00;;;;;;6306993;22;20346;-75
2021/01/23 02:35:06;;;;;;;1.65;1.30;;;15.80;61.00;;;;;;6305369;22;20007;-76
2021/01/23 02:37:33;;;;;;;1.70;1.42;;;15.70;61.10;;;;;;6306948;22;20008;-75
2021/01/23 02:40:00;;;;;;;2.63;1.30;;;15.70;61.00;;;;;;6306733;22;20056;-75
2021/01/23 02:42:25;;;;;;;1.58;1.27;;;15.80;61.10;;;;;;6279733;22;19995;-74
2021/01/23 02:44:51;;;;;;;1.58;1.27;;;15.70;61.10;;;;;;6306954;22;20003;-75
2021/01/23 02:47:17;;;;;;;1.63;1.52;;;15.70;61.00;;;;;;6307257;22;20007;-75
2021/01/23 02:49:43;;;;;;;1.58;1.20;;;15.70;61.00;;;;;;6278967;22;20007;-75
2021/01/23 02:52:41;;;;;;;2.13;1.40;;;15.70;61.10;;;;;;6306343;22;19999;-75
2021/01/23 02:55:09;;;;;;;;;;;15.70;61.10;;;;;;6229169;22;20007;-75
2021/01/23 02:57:38;;;;;;;1.85;1.50;;;15.70;61.10;;;;;;6307284;22;19899;-75
2021/01/23 03:00:07;;;;;;;2.20;1.58;;;15.70;61.10;;;;;;6306149;22;20078;-75
2021/01/23 03:02:37;;;;;;;1.40;1.30;;;15.70;61.10;;;;;;6306166;22;20000;-75
2021/01/23 03:05:03;;;;;;;2.80;1.48;;;15.70;61.10;;;;;;6279534;22;20026;-75
2021/01/23 03:07:32;;;;;;;1.58;1.30;;;15.70;61.10;;;;;;6305397;22;19999;-75
2021/01/23 03:10:06;;;;;;;3.05;1.55;;;15.70;61.10;;;;;;6306445;22;20421;-75
2021/01/23 03:12:32;;;;;;;2.05;1.50;;;15.80;61.20;;;;;;6305563;22;20004;-75
2021/01/23 03:14:58;;;;;;;1.27;1.17;;;15.70;61.10;;;;;;6279364;22;20071;-75
2021/01/23 03:17:24;;;;;;;2.38;1.52;;;15.70;61.10;;;;;;6279439;22;20019;-75
2021/01/23 03:19:50;;;;;;;2.00;1.27;;;15.70;61.20;;;;;;6304854;22;20009;-75
2021/01/23 03:22:18;;;;;;;1.95;1.27;;;15.70;61.10;;;;;;6279172;22;20011;-75
2021/01/23 03:24:44;;;;;;;2.05;1.17;;;15.70;61.20;;;;;;6307057;22;19996;-75
2021/01/23 03:27:11;;;;;;;2.35;1.35;;;15.70;61.20;;;;;;6305289;22;20031;-75
2021/01/23 03:29:36;;;;;;;2.22;1.48;;;15.70;61.20;;;;;;6306846;22;20456;-75
2021/01/23 03:32:02;;;;;;;2.65;1.40;;;15.70;61.20;;;;;;6279056;22;20075;-75
2021/01/23 03:34:29;;;;;;;2.85;1.48;;;15.70;61.20;;;;;;6293672;22;20068;-74
2021/01/23 03:36:54;;;;;;;1.55;1.20;;;15.70;61.20;;;;;;6279509;22;20006;-75
2021/01/23 03:39:20;;;;;;;1.40;1.30;;;15.70;61.20;;;;;;6306780;22;20004;-74
2021/01/23 03:41:46;;;;;;;1.95;1.40;;;15.70;61.20;;;;;;6280737;22;20010;-75
2021/01/23 03:44:12;;;;;;;2.40;1.67;;;15.70;61.20;;;;;;6308497;22;20417;-75
2021/01/23 03:46:37;;;;;;;1.92;1.40;;;15.60;61.20;;;;;;6281338;22;20094;-75
2021/01/23 03:49:03;;;;;;;1.45;1.23;;;15.60;61.20;;;;;;6308596;22;20376;-75
2021/01/23 03:51:29;;;;;;;2.78;1.35;;;15.70;61.20;;;;;;6308560;22;19999;-74
2021/01/23 03:53:54;;;;;;;1.55;1.30;;;15.60;61.20;;;;;;6308966;22;19999;-75
2021/01/23 03:56:20;;;;;;;1.55;1.10;;;15.70;61.30;;;;;;6307403;22;20321;-75
2021/01/23 03:58:46;;;;;;;1.88;1.20;;;15.60;61.30;;;;;;6307480;22;20003;-75
2021/01/23 04:01:12;;;;;;;1.77;1.38;;;15.60;61.30;;;;;;6308050;22;20057;-74
2021/01/23 04:03:37;;;;;;;1.67;1.25;;;15.60;61.30;;;;;;6278789;22;20355;-74
2021/01/23 04:06:03;;;;;;;1.45;1.17;;;15.70;61.30;;;;;;6307112;22;20000;-75
2021/01/23 04:08:30;;;;;;;1.90;1.42;;;15.60;61.30;;;;;;6307741;22;20405;-74
2021/01/23 04:10:56;;;;;;;2.60;1.40;;;15.60;61.30;;;;;;6308030;22;20002;-76
2021/01/23 04:13:22;;;;;;;2.22;1.23;;;15.60;61.30;;;;;;6308604;22;20000;-74
2021/01/23 04:15:48;;;;;;;1.48;1.38;;;15.60;61.30;;;;;;6306484;22;20010;-74
2021/01/23 04:18:13;;;;;;;1.67;1.30;;;15.60;61.30;;;;;;6308423;22;19999;-74
2021/01/23 04:20:42;;;;;;;1.38;1.25;;;15.60;61.30;;;;;;6307736;22;20004;-74
2021/01/23 04:23:08;;;;;;;1.70;1.30;;;15.60;61.30;;;;;;6308553;22;20074;-74
2021/01/23 04:25:33;;;;;;;2.28;1.52;;;15.60;61.30;;;;;;6308072;22;20392;-75
2021/01/23 04:27:59;;;;;;;2.40;1.60;;;15.60;61.40;;;;;;6308107;22;20117;-74
2021/01/23 04:30:25;;;;;;;1.10;1.00;;;15.60;61.40;;;;;;6308239;22;19992;-73
2021/01/23 04:32:51;;;;;;;2.38;1.60;;;15.60;61.30;;;;;;6280929;22;20065;-74
2021/01/23 04:35:17;;;;;;;1.58;1.15;;;15.60;61.30;;;;;;6308675;22;20007;-74
2021/01/23 04:37:43;;;;;;;1.10;1.00;;;15.60;61.40;;;;;;6308473;22;19999;-74
2021/01/23 04:40:10;;;;;;;1.58;1.27;;;15.60;61.30;;;;;;6307029;22;20007;-74
2021/01/23 04:42:40;;;;;;;2.05;1.30;;;15.60;61.40;;;;;;6307923;22;20070;-74
2021/01/23 04:45:06;;;;;;;1.52;1.27;;;15.60;61.40;;;;;;6308122;22;19995;-74
2021/01/23 04:47:32;;;;;;;2.17;1.25;;;15.60;61.40;;;;;;6306786;22;20015;-74
2021/01/23 04:49:58;;;;;;;1.23;1.13;;;15.60;61.40;;;;;;6279996;22;20421;-74
2021/01/23 04:52:23;;;;;;;1.40;1.00;;;15.60;61.40;;;;;;6308440;22;20010;-74
2021/01/23 04:54:49;;;;;;;1.50;1.20;;;15.50;61.40;;;;;;6308839;22;20002;-74
2021/01/23 04:57:15;;;;;;;2.38;1.05;;;15.60;61.40;;;;;;6307888;22;20022;-74
2021/01/23 04:59:40;;;;;;;2.05;1.10;;;15.60;61.40;;;;;;6307626;22;20003;-73
2021/01/23 05:02:20;;;;;;;2.17;1.60;;;15.60;61.40;;;;;;6306061;22;20007;-75
2021/01/23 05:05:00;;;;;;;1.30;1.20;;;15.60;61.40;;;;;;6280227;22;20074;-74
2021/01/23 05:07:31;;;;;;;2.25;1.20;;;15.60;61.40;;;;;;6308705;22;19995;-74
2021/01/23 05:10:17;;;;;;;2.33;1.55;;;15.60;61.40;;;;;;6306586;22;20007;-74
2021/01/23 05:12:48;;;;;;;1.00;0.90;;;15.60;61.40;;;;;;6281025;22;20106;-74
2021/01/23 05:15:28;;;;;;;1.27;1.17;;;15.60;61.50;;;;;;6308212;22;19995;-74
2021/01/23 05:17:54;;;;;;;1.58;0.98;;;15.60;61.50;;;;;;6308398;22;20023;-74
2021/01/23 05:20:35;;;;;;;1.33;1.20;;;15.60;61.50;;;;;;6308104;22;20357;-74
2021/01/23 05:23:22;;;;;;;1.20;1.10;;;15.60;61.50;;;;;;6308078;22;20025;-74
2021/01/23 05:25:59;;;;;;;2.55;1.20;;;15.60;61.50;;;;;;6307155;22;20023;-74
2021/01/23 05:28:38;;;;;;;1.52;1.10;;;15.50;61.50;;;;;;6280470;22;20367;-74
2021/01/23 05:31:07;;;;;;;1.52;1.02;;;15.50;61.50;;;;;;6307702;22;19992;-74
2021/01/23 05:33:34;;;;;;;1.58;1.40;;;15.50;61.50;;;;;;6307869;22;20003;-74
2021/01/23 05:36:08;;;;;;;1.50;1.30;;;15.60;61.60;;;;;;6307037;22;20417;-74
2021/01/23 05:38:37;;;;;;;2.70;1.17;;;15.50;61.50;;;;;;6308134;22;20031;-74
2021/01/23 05:41:06;;;;;;;1.70;1.10;;;15.50;61.50;;;;;;6280260;22;20429;-74
2021/01/23 05:43:36;;;;;;;1.40;1.00;;;15.50;61.50;;;;;;6307447;22;19999;-74
2021/01/23 05:46:07;;;;;;;1.60;1.30;;;15.50;61.50;;;;;;6307400;22;20064;-74
2021/01/23 05:48:34;;;;;;;1.83;1.38;;;15.50;61.50;;;;;;6280082;22;20379;-74
2021/01/23 05:51:01;;;;;;;1.70;1.17;;;15.50;61.60;;;;;;6307309;22;19995;-74
2021/01/23 05:53:27;;;;;;;1.88;1.33;;;15.50;61.60;;;;;;6306731;22;20006;-74
2021/01/23 05:55:53;;;;;;;2.03;1.42;;;15.50;61.60;;;;;;6306631;22;20411;-74
2021/01/23 05:58:19;;;;;;;1.10;1.00;;;15.50;61.60;;;;;;6306515;22;20006;-74
2021/01/23 06:00:47;;;;;;;1.98;1.15;;;15.50;61.60;;;;;;6305348;22;20392;-74
2021/01/23 06:03:16;;;;;;;2.72;1.33;;;15.50;61.60;;;;;;6307110;22;19996;-74
2021/01/23 06:05:42;;;;;;;2.28;1.33;;;15.50;61.60;;;;;;6306936;22;19999;-74
2021/01/23 06:08:08;;;;;;;1.77;1.02;;;15.50;61.60;;;;;;6306992;22;20031;-74
2021/01/23 06:10:36;;;;;;;1.23;1.08;;;15.50;61.60;;;;;;6306586;22;19998;-74
2021/01/23 06:13:02;;;;;;;1.63;1.10;;;15.50;61.60;;;;;;6279938;22;20007;-75
2021/01/23 06:15:41;;;;;;;1.30;1.20;;;15.50;61.60;;;;;;6294639;22;20217;-74
2021/01/23 06:18:21;;;;;;;1.73;1.33;;;15.50;61.60;;;;;;6307592;22;20074;-74
2021/01/23 06:20:48;;;;;;;1.70;1.17;;;15.50;61.60;;;;;;6306612;22;20003;-75
2021/01/23 06:23:24;;;;;;;2.53;1.60;;;15.50;61.60;;;;;;6305481;22;20045;-75
2021/01/23 06:25:50;;;;;;;2.28;1.20;;;15.50;61.60;;;;;;6307392;22;20003;-75
2021/01/23 06:28:22;;;;;;;2.10;1.42;;;15.50;61.60;;;;;;6306928;22;20141;-75
2021/01/23 06:30:50;;;;;;;1.95;1.00;;;15.50;61.60;;;;;;6306575;22;19999;-75
2021/01/23 06:33:22;;;;;;;1.10;1.00;;;15.50;61.70;;;;;;6306977;22;19999;-75
2021/01/23 06:36:06;;;;;;;1.63;1.30;;;15.50;61.70;;;;;;6307025;22;20006;-75
2021/01/23 06:38:33;;;;;;;1.20;1.05;;;15.50;61.70;;;;;;6307331;22;20003;-75
2021/01/23 06:41:32;;;;;;;1.60;1.30;;;15.50;61.60;;;;;;6306629;22;19999;-75
2021/01/23 06:44:06;;;;;;;1.10;1.00;;;15.50;61.60;;;;;;6307614;22;20054;-75
2021/01/23 06:46:44;;;;;;;1.10;0.95;;;15.50;61.70;;;;;;6292516;22;20041;-75
2021/01/23 06:49:11;;;;;;;1.20;1.10;;;15.50;61.70;;;;;;6279404;22;20018;-75
2021/01/23 06:51:41;;;;;;;1.47;0.90;;;15.50;61.70;;;;;;6279334;22;20078;-75
2021/01/23 06:54:21;;;;;;;1.58;1.48;;;15.50;61.60;;;;;;6279816;22;20081;-75
2021/01/23 06:56:48;;;;;;;1.30;1.17;;;15.50;61.70;;;;;;6305789;22;20443;-75
2021/01/23 06:59:31;;;;;;;1.10;0.93;;;15.40;61.70;;;;;;6279590;22;20420;-75
2021/01/23 07:02:07;;;;;;;1.85;1.38;;;15.50;61.70;;;;;;6306552;22;20000;-75
2021/01/23 07:04:53;;;;;;;1.33;1.00;;;15.50;61.70;;;;;;6305741;22;20057;-75
2021/01/23 07:07:18;;;;;;;1.63;1.10;;;15.50;61.70;;;;;;6278820;22;20003;-75
2021/01/23 07:09:58;;;;;;;1.77;1.17;;;15.50;61.70;;;;;;6306296;22;20380;-75
2021/01/23 07:12:46;;;;;;;2.08;1.00;;;15.50;61.70;;;;;;6306783;22;20074;-75
2021/01/23 07:15:13;;;;;;;1.98;1.23;;;15.50;61.70;;;;;;6306066;22;20003;-75
2021/01/23 07:17:40;;;;;;;1.40;1.10;;;15.50;61.70;;;;;;6306761;22;19996;-75
2021/01/23 07:20:10;;;;;;;1.30;1.20;;;15.50;61.70;;;;;;6306687;22;20315;-75
2021/01/23 07:22:49;;;;;;;1.55;1.10;;;15.50;61.70;;;;;;6279099;22;20428;-75
2021/01/23 07:25:16;;;;;;;2.60;1.13;;;15.50;61.70;;;;;;6306529;22;19995;-75
2021/01/23 07:27:43;;;;;;;1.67;1.23;;;15.50;61.70;;;;;;6306392;22;20075;-75
2021/01/23 07:30:12;;;;;;;2.28;1.42;;;15.50;61.70;;;;;;6278654;22;20007;-75
2021/01/23 07:32:39;;;;;;;1.95;1.23;;;15.50;61.70;;;;;;6306674;22;20291;-75
2021/01/23 07:35:06;;;;;;;1.40;1.00;;;15.50;61.60;;;;;;6306862;22;20021;-75
2021/01/23 07:37:56;;;;;;;1.63;1.17;;;15.50;61.60;;;;;;6306737;22;20057;-75
2021/01/23 07:40:31;;;;;;;1.55;1.17;;;15.50;61.60;;;;;;6295051;22;20003;-75
2021/01/23 07:42:59;;;;;;;1.23;1.10;;;15.50;61.60;;;;;;6307064;22;20062;-75
2021/01/23 07:45:25;;;;;;;1.88;1.08;;;15.50;61.60;;;;;;6310643;22;20425;-75
2021/01/23 07:47:57;;;;;;;1.85;1.00;;;15.50;61.60;;;;;;6337975;22;20003;-75
2021/01/23 07:50:24;;;;;;;1.42;1.05;;;15.50;61.60;;;;;;6337375;22;20010;-75
2021/01/23 07:52:50;;;;;;;1.55;1.15;;;15.50;61.60;;;;;;6336688;22;20044;-75
2021/01/23 07:55:15;;;;;;;0.98;0.85;;;15.50;61.60;;;;;;6338228;22;19990;-75
2021/01/23 07:57:41;;;;;;;1.90;1.27;;;15.50;61.60;;;;;;6336437;22;20037;-75
2021/01/23 08:00:21;;;;;;;1.65;1.15;;;15.50;61.60;;;;;;6338017;22;20391;-75
2021/01/23 08:02:51;;;;;;;1.92;1.38;;;15.50;61.60;;;;;;6309993;22;20452;-75
2021/01/23 08:05:18;;;;;;;2.25;1.23;;;15.50;61.60;;;;;;6308125;22;20294;-75
2021/01/23 08:07:44;;;;;;;1.15;1.02;;;15.50;61.60;;;;;;6336701;22;20294;-75
2021/01/23 08:10:34;;;;;;;1.17;1.00;;;15.50;61.60;;;;;;6337827;22;20007;-75
2021/01/23 08:13:02;;;;;;;1.00;0.90;;;15.50;61.60;;;;;;6305344;22;20003;-75
2021/01/23 08:15:40;;;;;;;1.20;1.05;;;15.50;61.60;;;;;;6337960;22;20003;-75
2021/01/23 08:18:20;;;;;;;1.30;1.10;;;15.50;61.50;;;;;;6337677;22;20052;-75
2021/01/23 08:20:46;;;;;;;1.60;1.13;;;15.50;61.60;;;;;;6337752;22;20002;-75
2021/01/23 08:23:18;;;;;;;0.82;0.82;;;15.50;61.60;;;;;;6336192;22;20010;-75
2021/01/23 08:25:51;;;;;;;1.90;1.42;;;15.50;61.60;;;;;;6335020;22;20006;-75
2021/01/23 08:28:36;;;;;;;1.10;1.00;;;15.50;61.60;;;;;;6337778;22;20014;-75
2021/01/23 08:31:22;;;;;;;0.90;0.90;;;15.50;61.60;;;;;;6309767;22;20010;-75
2021/01/23 08:33:54;;;;;;;1.20;1.10;;;15.50;61.60;;;;;;6305984;22;20007;-75
2021/01/23 08:36:20;;;;;;;2.03;1.40;;;15.50;61.60;;;;;;6337619;22;20015;-75
2021/01/23 08:38:53;;;;;;;0.93;0.90;;;15.50;61.50;;;;;;6339170;22;20120;-75
2021/01/23 08:41:22;;;;;;;1.50;0.95;;;15.50;61.60;;;;;;6310133;22;20451;-75
2021/01/23 08:43:48;;;;;;;1.20;1.08;;;15.50;61.60;;;;;;6339090;22;20029;-75
2021/01/23 08:46:13;;;;;;;1.00;0.90;;;15.50;61.50;;;;;;6296930;22;20011;-75
2021/01/23 08:48:45;;;;;;;1.17;1.00;;;15.50;61.50;;;;;;6307660;22;20397;-75
2021/01/23 08:51:10;;;;;;;1.35;1.10;;;15.50;61.50;;;;;;6305084;22;20371;-75
2021/01/23 08:53:36;;;;;;;1.13;0.93;;;15.50;61.50;;;;;;6308022;22;19999;-75
2021/01/23 08:56:02;;;;;;;1.45;1.02;;;15.50;61.50;;;;;;6306850;22;19999;-75
2021/01/23 08:58:27;;;;;;;1.05;0.73;;;15.50;61.40;;;;;;6307777;22;20003;-75
2021/01/23 09:00:53;;;;;;;1.00;0.80;;;15.50;61.40;;;;;;6307904;22;20010;-75
2021/01/23 09:03:19;;;;;;;1.20;1.10;;;15.60;61.30;;;;;;6305845;22;20006;-75
2021/01/23 09:05:45;;;;;;;1.52;1.10;;;15.60;61.30;;;;;;6307716;22;20070;-75
2021/01/23 09:08:10;;;;;;;1.30;0.95;;;15.60;61.20;;;;;;6307843;22;20003;-75
2021/01/23 09:10:36;;;;;;;1.50;0.93;;;15.60;61.20;;;;;;6306979;22;20045;-75
2021/01/23 09:13:02;;;;;;;1.50;1.13;;;15.60;61.20;;;;;;6306515;22;20003;-75
2021/01/23 09:15:27;;;;;;;0.60;0.60;;;15.60;61.20;;;;;;6280505;22;20038;-75
2021/01/23 09:17:53;;;;;;;1.75;1.13;;;15.60;61.10;;;;;;6305871;22;20325;-75
2021/01/23 09:20:19;;;;;;;1.08;0.98;;;15.60;61.10;;;;;;6308006;22;20068;-75
2021/01/23 09:22:45;;;;;;;1.00;0.80;;;15.60;61.10;;;;;;6305893;22;19996;-75
2021/01/23 09:25:11;;;;;;;2.40;1.83;;;15.70;61.10;;;;;;6308119;22;19995;-75
2021/01/23 09:27:37;;;;;;;1.15;0.95;;;15.70;61.00;;;;;;6307358;22;20048;-75
2021/01/23 09:30:03;;;;;;;2.00;1.20;;;15.70;61.00;;;;;;6307766;22;20055;-75
2021/01/23 09:32:29;;;;;;;1.42;1.17;;;15.70;60.90;;;;;;6307319;22;20030;-75
2021/01/23 09:34:55;;;;;;;1.10;0.98;;;15.70;60.90;;;;;;6280274;22;20003;-75
2021/01/23 09:37:23;;;;;;;1.10;0.93;;;15.70;60.90;;;;;;6305824;22;20413;-75
2021/01/23 09:39:49;;;;;;;1.73;0.90;;;15.70;60.80;;;;;;6305240;22;20004;-74
2021/01/23 09:42:18;;;;;;;1.00;0.77;;;15.70;60.80;;;;;;6280389;22;20003;-76
2021/01/23 09:44:47;;;;;;;1.10;1.00;;;15.70;60.90;;;;;;6308009;22;20074;-75
2021/01/23 09:47:14;;;;;;;0.77;0.77;;;15.70;60.90;;;;;;6301601;22;20061;-75
2021/01/23 09:49:40;;;;;;;1.33;1.10;;;15.80;60.90;;;;;;6305612;22;20444;-75
2021/01/23 09:52:08;;;;;;;1.70;0.90;;;15.70;60.90;;;;;;6280473;22;20222;-75
2021/01/23 09:54:34;;;;;;;0.77;0.75;;;15.70;60.90;;;;;;6307883;22;20003;-75
2021/01/23 09:57:01;;;;;;;1.13;1.02;;;15.70;61.00;;;;;;6280432;22;19995;-75
2021/01/23 09:59:27;;;;;;;1.13;1.00;;;15.70;61.00;;;;;;6307348;22;20355;-75
2021/01/23 10:01:53;;;;;;;0.88;0.88;;;15.70;61.10;;;;;;6279296;22;20000;-75
2021/01/23 10:04:19;;;;;;;1.75;1.20;;;15.60;61.10;;;;;;6303889;22;19999;-75
2021/01/23 10:06:45;;;;;;;1.85;1.00;;;15.60;61.10;;;;;;6308143;22;20051;-75
2021/01/23 10:09:10;;;;;;;2.05;1.13;;;15.70;61.10;;;;;;6307929;22;20096;-75
2021/01/23 10:11:36;;;;;;;1.02;0.90;;;15.60;61.20;;;;;;6307899;22;20442;-75
2021/01/23 10:14:02;;;;;;;2.05;1.25;;;15.60;61.20;;;;;;6280527;22;20003;-75
2021/01/23 10:16:27;;;;;;;1.10;1.00;;;15.60;61.20;;;;;;6307069;22;19999;-75
2021/01/23 10:18:53;;;;;;;1.55;1.00;;;15.60;61.20;;;;;;6310000;22;20003;-76
2021/01/23 10:21:18;;;;;;;0.82;0.70;;;15.60;61.20;;;;;;6281447;22;20003;-75
2021/01/23 10:23:44;;;;;;;1.05;0.80;;;15.60;61.20;;;;;;6307835;22;20325;-75
2021/01/23 10:26:10;;;;;;;1.33;1.02;;;15.60;61.20;;;;;;6307145;22;20003;-75
2021/01/23 10:28:35;;;;;;;1.23;1.10;;;15.60;61.20;;;;;;6307663;22;20439;-75
2021/01/23 10:31:01;;;;;;;1.70;1.08;;;15.60;61.20;;;;;;6307159;22;20466;-75
2021/01/23 10:33:27;;;;;;;1.23;1.00;;;15.60;61.20;;;;;;6280398;22;20467;-75
2021/01/23 10:35:52;;;;;;;1.00;0.90;;;15.60;61.20;;;;;;6307433;22;20025;-75
2021/01/23 10:38:18;;;;;;;1.00;0.90;;;15.60;61.20;;;;;;6307425;22;20409;-76
2021/01/23 10:40:44;;;;;;;1.05;0.80;;;15.60;61.20;;;;;;6307089;22;19996;-76
2021/01/23 10:43:11;;;;;;;1.30;1.10;;;15.60;61.10;;;;;;6307263;22;20006;-75
2021/01/23 10:45:38;;;;;;;1.27;1.10;;;15.70;61.00;;;;;;6306984;22;20022;-75
2021/01/23 10:48:04;;;;;;;1.10;0.95;;;15.70;61.00;;;;;;6279426;22;20003;-75
2021/01/23 10:50:30;;;;;;;1.52;1.27;;;15.70;61.00;;;;;;6279826;22;20443;-75
2021/01/23 10:52:56;;;;;;;1.17;0.95;;;15.70;61.00;;;;;;6280083;22;20003;-75
2021/01/23 10:55:22;;;;;;;1.17;1.00;;;15.70;60.90;;;;;;6305591;22;20007;-75
2021/01/23 10:57:47;;;;;;;0.93;0.88;;;15.70;60.90;;;;;;6305443;22;19996;-75
2021/01/23 11:00:14;;;;;;;0.80;0.80;;;15.70;60.90;;;;;;6306872;22;20003;-75
2021/01/23 11:02:40;;;;;;;1.85;1.00;;;15.70;60.90;;;;;;6279039;22;20318;-75
2021/01/23 11:05:07;;;;;;;1.05;0.95;;;15.70;60.90;;;;;;6279602;22;20049;-75
2021/01/23 11:07:33;;;;;;;0.95;0.80;;;15.60;60.90;;;;;;6280064;22;20082;-75
2021/01/23 11:09:59;;;;;;;0.77;0.77;;;15.70;60.90;;;;;;6300618;22;20037;-74
2021/01/23 11:12:25;;;;;;;1.80;0.80;;;15.70;61.00;;;;;;6306340;22;19995;-75
2021/01/23 11:14:55;;;;;;;0.95;0.90;;;15.70;60.90;;;;;;6279518;22;19995;-75
2021/01/23 11:17:24;;;;;;;1.10;1.00;;;15.70;60.90;;;;;;6305212;22;19999;-75
2021/01/23 11:19:49;;;;;;;;;;;15.70;60.90;;;;;;6305294;22;20074;-75
2021/01/23 11:22:15;;;;;;;0.80;0.80;;;15.70;60.80;;;;;;6305787;22;19922;-75
2021/01/23 11:24:43;;;;;;;1.52;0.90;;;15.70;60.80;;;;;;6306190;22;20066;-75
2021/01/23 11:27:09;;;;;;;0.90;0.90;;;15.70;60.80;;;;;;6279591;22;20030;-74
2021/01/23 11:29:35;;;;;;;1.45;0.85;;;15.70;60.80;;;;;;6305139;22;20416;-75
2021/01/23 11:32:01;;;;;;;0.80;0.80;;;15.70;60.70;;;;;;6304298;22;19999;-75
2021/01/23 11:34:27;;;;;;;0.82;0.68;;;15.80;60.70;;;;;;6278947;22;20049;-75
2021/01/23 11:36:53;;;;;;;0.60;0.60;;;15.80;60.70;;;;;;6303811;22;20371;-75
2021/01/23 11:39:18;;;;;;;0.80;0.77;;;15.80;60.60;;;;;;6305893;22;19999;-75
2021/01/23 11:41:44;;;;;;;1.17;0.90;;;15.80;60.60;;;;;;6306000;22;19995;-75
2021/01/23 11:44:10;;;;;;;0.73;0.70;;;15.80;60.60;;;;;;6306288;22;20000;-75
2021/01/23 11:46:36;;;;;;;1.40;1.20;;;15.80;60.60;;;;;;6305733;22;20086;-75
2021/01/23 11:49:03;;;;;;;1.17;0.90;;;15.80;60.60;;;;;;6306123;22;20007;-75
2021/01/23 11:51:28;;;;;;;1.10;1.00;;;15.80;60.50;;;;;;6306773;22;20007;-75
2021/01/23 11:53:54;;;;;;;0.70;0.70;;;15.80;60.50;;;;;;6307050;22;20052;-75
2021/01/23 11:56:20;;;;;;;0.70;0.70;;;15.80;60.50;;;;;;6278960;22;20026;-75
2021/01/23 11:58:46;;;;;;;0.93;0.70;;;15.80;60.40;;;;;;6278960;22;19999;-75
2021/01/23 12:01:11;;;;;;;1.10;0.80;;;15.80;60.50;;;;;;6305856;22;20006;-75
2021/01/23 12:03:37;;;;;;;0.90;0.80;;;15.80;60.50;;;;;;6308246;22;20486;-76
2021/01/23 12:06:03;;;;;;;1.27;0.75;;;15.80;60.40;;;;;;6281106;22;19996;-76
2021/01/23 12:08:29;;;;;;;1.27;1.15;;;15.80;60.40;;;;;;6280563;22;20327;-75
2021/01/23 12:10:55;;;;;;;1.38;0.80;;;15.80;60.40;;;;;;6281331;22;20003;-75
2021/01/23 12:13:21;;;;;;;1.15;0.90;;;15.80;60.40;;;;;;6308642;22;20041;-74
2021/01/23 12:15:46;;;;;;;1.30;0.90;;;15.80;60.40;;;;;;6280541;22;19996;-75
2021/01/23 12:18:12;;;;;;;0.93;0.82;;;15.80;60.30;;;;;;6308063;22;20075;-76
2021/01/23 12:20:38;;;;;;;1.02;0.93;;;15.80;60.30;;;;;;6308638;22;19995;-75
2021/01/23 12:23:03;;;;;;;0.70;0.70;;;15.80;60.30;;;;;;6308216;22;20388;-72
2021/01/23 12:25:34;;;;;;;1.00;0.88;;;15.80;60.30;;;;;;6306896;22;20011;-75
2021/01/23 12:28:02;;;;;;;0.75;0.63;;;15.90;60.20;;;;;;6281052;22;20060;-75
2021/01/23 12:30:33;;;;;;;1.38;1.00;;;15.90;60.20;;;;;;6308292;22;20112;-75
2021/01/23 12:32:59;;;;;;;1.00;0.90;;;15.80;60.20;;;;;;6306021;22;20007;-75
2021/01/23 12:35:24;;;;;;;1.23;0.90;;;15.80;60.20;;;;;;6308244;22;20000;-76
2021/01/23 12:37:57;;;;;;;1.27;0.88;;;15.80;60.20;;;;;;6308666;22;20310;-76
2021/01/23 12:40:23;;;;;;;0.80;0.80;;;15.80;60.20;;;;;;6308599;22;20367;-75
2021/01/23 12:42:53;;;;;;;0.80;0.80;;;15.80;60.20;;;;;;6280946;22;20490;-75
2021/01/23 12:45:19;;;;;;;0.90;0.80;;;15.80;60.30;;;;;;6306024;22;20000;-75
2021/01/23 12:47:44;;;;;;;1.23;0.95;;;15.80;60.30;;;;;;6307506;22;20113;-76
2021/01/23 12:50:12;;;;;;;0.80;0.80;;;15.80;60.20;;;;;;6308784;22;20409;-75
2021/01/23 12:52:38;;;;;;;0.68;0.68;;;15.80;60.30;;;;;;6307355;22;20432;-75
2021/01/23 12:55:09;;;;;;;0.80;0.80;;;15.80;60.30;;;;;;6305217;22;20425;-75
2021/01/23 12:57:41;;;;;;;0.80;0.80;;;15.80;60.30;;;;;;6306681;22;20320;-76